Saint-Philippe-De-Neri, Canada
Current Conditions -  °F | °C
As of 5:53 AM on Friday 31 Oct 2014 (Local Time) from KFVE Reporting Station
Overcast Overcast  
Wind Chill: 30°   Ceiling: 5000
Heat Index: 34°   Visibility: 10mi
Dew Point: 27°   Wind: 5mph
Humidity: 75%   Direction: 300°WNW
Pressure: 29.97"   Gusts: NA
Location:  47.45°N, 69.88°W
Report Text: KFVE 310953Z AUTO 30004KT 10SM OVC050 01/M03 A2997 RMK AO2 SLP157 T00111028
Loading
Personal Weather Stations






























Interactive Weather Map
Tropical Storm Tracking
New forecast layout! Learn more

10-Day Weather Forecast

Advertisements
Track Severe Weather on mobile